createdAt,value
2022-11-07T00:00:53.249Z,1
2022-11-07T00:02:36.886Z,1
2022-11-07T00:04:20.630Z,1
2022-11-07T00:06:04.281Z,1
2022-11-07T00:07:47.980Z,1
2022-11-07T00:09:31.681Z,1
2022-11-07T00:11:15.431Z,2
2022-11-07T00:12:59.085Z,1
2022-11-07T00:14:42.786Z,1
2022-11-07T00:16:26.481Z,2
2022-11-07T00:18:10.175Z,1
2022-11-07T00:19:53.886Z,0
2022-11-07T00:21:37.617Z,1
2022-11-07T00:23:21.291Z,1
2022-11-07T00:25:04.986Z,1
2022-11-07T00:26:48.814Z,1
2022-11-07T00:28:32.391Z,2
2022-11-07T00:30:16.142Z,1
2022-11-07T00:31:59.807Z,1
2022-11-07T00:33:43.492Z,1
2022-11-07T00:35:27.197Z,1
2022-11-07T00:37:10.907Z,1
2022-11-07T00:38:54.607Z,1
2022-11-07T00:40:38.308Z,1
2022-11-07T00:42:22.003Z,1
2022-11-07T00:44:05.703Z,1
2022-11-07T00:45:49.414Z,1
2022-11-07T00:47:33.098Z,2
2022-11-07T00:49:16.843Z,2
2022-11-07T00:51:00.505Z,1
2022-11-07T00:52:44.221Z,1
2022-11-07T00:54:27.912Z,1
2022-11-07T00:56:11.611Z,1
2022-11-07T00:57:55.308Z,2
2022-11-07T00:59:39.020Z,0
2022-11-07T01:01:22.702Z,0
2022-11-07T01:03:06.406Z,0
2022-11-07T01:04:50.116Z,0
2022-11-07T01:06:33.818Z,0
2022-11-07T01:08:17.515Z,0
2022-11-07T01:10:01.238Z,0
2022-11-07T01:11:44.911Z,0
2022-11-07T01:13:28.610Z,0
2022-11-07T01:15:12.316Z,1
2022-11-07T01:16:56.010Z,0
2022-11-07T01:18:39.729Z,0
2022-11-07T01:20:23.419Z,0
2022-11-07T01:22:07.126Z,0
2022-11-07T01:23:50.834Z,0
2022-11-07T01:25:34.529Z,0
2022-11-07T01:27:18.233Z,0
2022-11-07T01:29:01.923Z,0
2022-11-07T01:30:45.643Z,0
2022-11-07T01:32:29.401Z,0
2022-11-07T01:34:13.076Z,0
2022-11-07T01:35:56.735Z,0
2022-11-07T01:37:40.450Z,0
2022-11-07T01:39:24.159Z,0
2022-11-07T01:41:07.850Z,1
2022-11-07T01:42:51.528Z,0
2022-11-07T01:44:35.232Z,0
2022-11-07T01:46:18.966Z,0
2022-11-07T01:48:02.653Z,0
2022-11-07T01:49:46.337Z,0
2022-11-07T01:51:30.056Z,0
2022-11-07T01:53:13.738Z,0
2022-11-07T01:54:57.449Z,0
2022-11-07T01:56:41.157Z,0
2022-11-07T01:58:24.872Z,0
2022-11-07T02:00:08.579Z,0
2022-11-07T02:01:52.309Z,1
2022-11-07T02:03:35.949Z,0
2022-11-07T02:05:19.655Z,0
2022-11-07T02:07:03.367Z,0
2022-11-07T02:08:47.066Z,0
2022-11-07T02:10:30.758Z,0
2022-11-07T02:12:14.470Z,0
2022-11-07T02:13:58.195Z,0
2022-11-07T02:15:41.875Z,0
2022-11-07T02:17:25.633Z,0
2022-11-07T02:19:09.273Z,1
2022-11-07T02:20:52.991Z,0
2022-11-07T02:22:36.689Z,1
2022-11-07T02:24:20.405Z,1
2022-11-07T02:26:04.097Z,0
2022-11-07T02:27:47.787Z,0
2022-11-07T02:29:31.496Z,0
2022-11-07T02:31:15.211Z,0
2022-11-07T02:32:58.893Z,0
2022-11-07T02:34:42.615Z,0
2022-11-07T02:36:26.305Z,0
2022-11-07T02:38:10.015Z,0
2022-11-07T02:39:53.722Z,0
2022-11-07T02:41:37.418Z,0
2022-11-07T02:43:21.115Z,0
2022-11-07T02:45:04.812Z,0
2022-11-07T02:46:48.499Z,0
2022-11-07T02:48:32.205Z,0
2022-11-07T02:50:15.952Z,0
2022-11-07T02:51:59.631Z,0
2022-11-07T02:53:43.322Z,0
2022-11-07T02:55:27.066Z,0
2022-11-07T02:57:10.739Z,0
2022-11-07T02:58:54.421Z,0
2022-11-07T03:00:38.131Z,0
2022-11-07T03:02:21.833Z,0
2022-11-07T03:04:05.525Z,0
2022-11-07T03:05:49.238Z,0
2022-11-07T03:07:33.050Z,0
2022-11-07T03:09:16.630Z,0
2022-11-07T03:11:00.342Z,0
2022-11-07T03:12:44.047Z,0
2022-11-07T03:14:27.749Z,0
2022-11-07T03:16:11.462Z,0
2022-11-07T03:17:55.154Z,0
2022-11-07T03:19:38.861Z,0
2022-11-07T03:21:22.579Z,0
2022-11-07T03:23:06.307Z,0
2022-11-07T03:24:49.958Z,0
2022-11-07T03:26:33.669Z,0
2022-11-07T03:28:17.408Z,0
2022-11-07T03:30:01.086Z,0
2022-11-07T03:31:44.775Z,0
2022-11-07T03:33:28.476Z,1
2022-11-07T03:35:12.165Z,0
2022-11-07T03:36:55.878Z,0
2022-11-07T03:38:39.609Z,0
2022-11-07T03:40:23.280Z,0
2022-11-07T03:42:06.993Z,0
2022-11-07T03:43:50.696Z,0
2022-11-07T03:45:34.495Z,0
2022-11-07T03:47:18.104Z,0
2022-11-07T03:49:01.803Z,0
2022-11-07T03:50:45.541Z,0
2022-11-07T03:52:29.214Z,0
2022-11-07T03:54:12.906Z,0
2022-11-07T03:55:56.616Z,0
2022-11-07T03:57:40.330Z,0
2022-11-07T03:59:24.029Z,0
2022-11-07T04:01:07.776Z,0
2022-11-07T04:02:51.439Z,0
2022-11-07T04:04:35.134Z,0
2022-11-07T04:06:18.842Z,0
2022-11-07T04:08:02.537Z,0
2022-11-07T04:09:46.244Z,0
2022-11-07T04:11:29.940Z,0
2022-11-07T04:13:13.654Z,0
2022-11-07T04:14:57.351Z,0
2022-11-07T04:16:41.055Z,0
2022-11-07T04:18:24.814Z,0
2022-11-07T04:20:08.468Z,0
2022-11-07T04:21:52.176Z,0
2022-11-07T04:23:35.867Z,0
2022-11-07T04:25:19.565Z,0
2022-11-07T04:27:03.284Z,0
2022-11-07T04:28:47.034Z,0
2022-11-07T04:30:30.677Z,1
2022-11-07T04:32:14.377Z,0
2022-11-07T04:33:58.174Z,0
2022-11-07T04:35:41.805Z,1
2022-11-07T04:37:25.491Z,0
2022-11-07T04:39:09.210Z,0
2022-11-07T04:40:52.915Z,0
2022-11-07T04:44:20.323Z,0
2022-11-07T04:46:04.024Z,0
2022-11-07T04:47:47.751Z,0
2022-11-07T04:49:31.427Z,0
2022-11-07T04:51:15.136Z,0
2022-11-07T04:52:58.834Z,0
2022-11-07T04:54:42.524Z,0
2022-11-07T04:56:26.241Z,0
2022-11-07T04:58:09.983Z,0
2022-11-07T04:59:53.663Z,1
2022-11-07T05:01:37.329Z,0
2022-11-07T05:03:21.039Z,0
2022-11-07T05:05:04.759Z,1
2022-11-07T05:06:48.453Z,0
2022-11-07T05:08:32.163Z,1
2022-11-07T05:10:15.927Z,0
2022-11-07T05:11:59.580Z,0
2022-11-07T05:13:43.262Z,0
2022-11-07T05:15:26.958Z,0
2022-11-07T05:17:10.659Z,0
2022-11-07T05:18:54.370Z,0
2022-11-07T05:20:38.072Z,0
2022-11-07T05:22:21.779Z,0
2022-11-07T05:24:05.474Z,0
2022-11-07T05:25:48.882Z,0
2022-11-07T05:27:32.585Z,0
2022-11-07T05:29:16.270Z,1
2022-11-07T05:30:59.995Z,1
2022-11-07T05:32:43.674Z,0
2022-11-07T05:34:27.390Z,0
2022-11-07T05:36:11.082Z,0
2022-11-07T05:37:54.802Z,0
2022-11-07T05:39:38.486Z,0
2022-11-07T05:41:22.183Z,0
2022-11-07T05:43:05.917Z,0
2022-11-07T05:44:49.597Z,0
2022-11-07T05:46:33.290Z,0
2022-11-07T05:48:16.997Z,0
2022-11-07T05:50:00.722Z,0
2022-11-07T05:51:44.537Z,0
2022-11-07T05:53:28.120Z,0
2022-11-07T05:55:11.808Z,0
2022-11-07T05:56:55.520Z,1
2022-11-07T05:58:39.241Z,0
2022-11-07T06:00:22.909Z,0
2022-11-07T06:02:06.621Z,0
2022-11-07T06:03:50.320Z,1
2022-11-07T06:05:34.019Z,1
2022-11-07T06:07:17.720Z,1
2022-11-07T06:09:01.437Z,1
2022-11-07T06:10:45.145Z,1
2022-11-07T06:12:28.827Z,1
2022-11-07T06:14:12.573Z,2
2022-11-07T06:15:56.314Z,2
2022-11-07T06:17:39.947Z,2
2022-11-07T06:19:23.637Z,2
2022-11-07T06:21:07.338Z,4
2022-11-07T06:22:51.046Z,4
2022-11-07T06:24:34.758Z,4
2022-11-07T06:26:18.438Z,5
2022-11-07T06:28:02.192Z,5
2022-11-07T06:29:45.901Z,6
2022-11-07T06:31:29.659Z,6
2022-11-07T06:33:13.236Z,6
2022-11-07T06:34:56.945Z,5
2022-11-07T06:36:40.656Z,4
2022-11-07T06:38:24.347Z,4
2022-11-07T06:40:08.044Z,5
2022-11-07T06:41:51.751Z,5
2022-11-07T06:43:35.453Z,6
2022-11-07T06:45:19.225Z,6
2022-11-07T06:47:02.845Z,7
2022-11-07T06:48:46.557Z,7
2022-11-07T06:50:30.268Z,8
2022-11-07T06:52:13.969Z,10
2022-11-07T06:53:57.663Z,12
2022-11-07T06:55:41.356Z,14
2022-11-07T06:57:25.078Z,15
2022-11-07T06:59:08.768Z,15
2022-11-07T07:00:52.459Z,14
2022-11-07T07:02:36.162Z,13
2022-11-07T07:04:19.943Z,12
2022-11-07T07:06:03.631Z,12
2022-11-07T07:07:47.342Z,14
2022-11-07T07:09:30.977Z,15
2022-11-07T07:11:14.734Z,19
2022-11-07T07:12:58.420Z,25
2022-11-07T07:14:42.083Z,31
2022-11-07T07:16:25.798Z,38
2022-11-07T07:18:09.480Z,47
2022-11-07T07:19:53.256Z,55
2022-11-07T07:21:36.892Z,60
2022-11-07T07:23:20.595Z,64
2022-11-07T07:25:04.355Z,66
2022-11-07T07:26:48.018Z,65
2022-11-07T07:28:31.703Z,64
2022-11-07T07:30:15.426Z,63
2022-11-07T07:31:59.114Z,60
2022-11-07T07:33:42.815Z,58
2022-11-07T07:35:26.517Z,56
2022-11-07T07:37:10.220Z,55
2022-11-07T07:38:53.988Z,54
2022-11-07T07:40:37.618Z,53
2022-11-07T07:42:21.328Z,52
2022-11-07T07:44:05.024Z,775
2022-11-07T07:45:48.978Z,776
2022-11-07T07:47:32.420Z,775
2022-11-07T07:49:16.115Z,776
2022-11-07T07:50:59.819Z,775
2022-11-07T07:52:43.528Z,776
2022-11-07T07:54:27.239Z,776
2022-11-07T07:56:10.926Z,777
2022-11-07T07:57:54.635Z,776
2022-11-07T07:59:38.337Z,776
2022-11-07T08:01:22.098Z,777
2022-11-07T08:03:05.724Z,777
2022-11-07T08:04:49.510Z,777
2022-11-07T08:06:33.141Z,777
2022-11-07T08:08:16.966Z,776
2022-11-07T08:10:00.582Z,776
2022-11-07T08:11:44.281Z,776
2022-11-07T08:13:27.974Z,776
2022-11-07T08:15:11.681Z,778
2022-11-07T08:16:55.406Z,777
2022-11-07T08:18:39.125Z,776
2022-11-07T08:20:22.820Z,777
2022-11-07T08:22:06.501Z,776
2022-11-07T08:23:50.136Z,777
2022-11-07T08:25:33.844Z,777
2022-11-07T08:27:17.552Z,777
2022-11-07T08:29:01.261Z,777
2022-11-07T08:30:44.942Z,777
2022-11-07T08:32:28.638Z,776
2022-11-07T08:34:12.352Z,778
2022-11-07T08:35:56.159Z,777
2022-11-07T08:37:39.746Z,775
2022-11-07T08:39:23.455Z,777
2022-11-07T08:41:07.147Z,777
2022-11-07T08:42:50.931Z,776
2022-11-07T08:44:34.558Z,776
2022-11-07T08:46:18.250Z,777
2022-11-07T08:48:01.970Z,777
2022-11-07T08:49:45.654Z,777
2022-11-07T08:51:29.369Z,777
2022-11-07T08:53:13.097Z,777
2022-11-07T08:54:56.830Z,776
2022-11-07T08:56:40.574Z,777
2022-11-07T08:58:24.154Z,776
2022-11-07T09:00:07.882Z,777
2022-11-07T09:01:51.566Z,777
2022-11-07T09:03:35.340Z,777
2022-11-07T09:05:19.069Z,778
2022-11-07T09:07:02.752Z,777
2022-11-07T09:08:46.441Z,778
2022-11-07T09:10:30.087Z,777
2022-11-07T09:12:13.784Z,776
2022-11-07T09:13:57.498Z,777
2022-11-07T09:15:41.283Z,777
2022-11-07T09:17:24.897Z,776
2022-11-07T09:19:08.598Z,775
2022-11-07T09:20:52.340Z,777
2022-11-07T09:22:36.030Z,777
2022-11-07T09:24:19.722Z,777
2022-11-07T09:26:03.491Z,775
2022-11-07T09:27:47.128Z,777
2022-11-07T09:29:30.895Z,777
2022-11-07T09:31:14.602Z,777
2022-11-07T09:32:58.230Z,777
2022-11-07T09:34:41.928Z,778
2022-11-07T09:36:25.763Z,777
2022-11-07T09:38:09.345Z,776
2022-11-07T09:39:53.038Z,777
2022-11-07T09:41:36.960Z,777
2022-11-07T09:43:20.512Z,777
2022-11-07T09:45:04.143Z,777
2022-11-07T09:46:47.847Z,778
2022-11-07T09:48:31.586Z,777
2022-11-07T09:50:15.263Z,777
2022-11-07T09:51:58.959Z,777
2022-11-07T09:53:42.783Z,776
2022-11-07T09:55:26.421Z,777
2022-11-07T09:57:10.072Z,777
2022-11-07T09:58:53.812Z,777
2022-11-07T10:00:37.497Z,774
2022-11-07T10:02:21.263Z,778
2022-11-07T10:04:04.887Z,777
2022-11-07T10:05:48.735Z,777
2022-11-07T10:07:32.296Z,777
2022-11-07T10:09:16.016Z,777
2022-11-07T10:10:59.729Z,777
2022-11-07T10:12:43.381Z,777
2022-11-07T10:14:27.073Z,777
2022-11-07T10:16:10.778Z,778
2022-11-07T10:17:54.497Z,777
2022-11-07T10:19:38.270Z,777
2022-11-07T10:21:21.946Z,777
2022-11-07T10:23:05.620Z,778
2022-11-07T10:24:49.312Z,777
2022-11-07T10:26:32.987Z,778
2022-11-07T10:28:16.743Z,778
2022-11-07T10:30:00.380Z,777
2022-11-07T10:31:44.091Z,777
2022-11-07T10:33:27.803Z,778
2022-11-07T10:35:11.502Z,777
2022-11-07T10:36:55.203Z,777
2022-11-07T10:38:38.917Z,778
2022-11-07T10:40:22.596Z,777
2022-11-07T10:42:06.316Z,777
2022-11-07T10:43:49.998Z,777
2022-11-07T10:45:33.737Z,778
2022-11-07T10:47:17.539Z,778
2022-11-07T10:49:01.209Z,778
2022-11-07T10:50:44.803Z,777
2022-11-07T10:52:28.563Z,777
2022-11-07T10:54:12.214Z,778
2022-11-07T10:55:55.940Z,777
2022-11-07T10:57:39.660Z,778
2022-11-07T10:59:23.330Z,778
2022-11-07T11:01:07.023Z,778
2022-11-07T11:02:50.730Z,778
2022-11-07T11:04:34.420Z,778
2022-11-07T11:06:18.144Z,778
2022-11-07T11:08:01.834Z,778
2022-11-07T11:09:45.548Z,778
2022-11-07T11:11:29.371Z,778
2022-11-07T11:13:12.941Z,777
2022-11-07T11:14:56.631Z,777
2022-11-07T11:16:40.355Z,777
2022-11-07T11:18:24.116Z,778
2022-11-07T11:20:07.817Z,777
2022-11-07T11:21:51.451Z,777
2022-11-07T11:23:35.160Z,775
2022-11-07T11:25:18.858Z,778
2022-11-07T11:27:02.601Z,777
2022-11-07T11:28:46.287Z,777
2022-11-07T11:30:29.967Z,775
2022-11-07T11:33:57.383Z,778
2022-11-07T11:35:41.076Z,777
2022-11-07T11:37:24.793Z,775
2022-11-07T11:39:08.490Z,779
2022-11-07T11:40:52.174Z,777
2022-11-07T11:42:35.942Z,778
2022-11-07T11:44:19.601Z,777
2022-11-07T11:46:03.302Z,778
2022-11-07T11:47:47.013Z,779
2022-11-07T11:49:30.774Z,777
2022-11-07T11:51:14.405Z,778
2022-11-07T11:52:58.121Z,778
2022-11-07T11:54:41.850Z,779
2022-11-07T11:56:25.577Z,779
2022-11-07T11:58:09.217Z,778
2022-11-07T11:59:52.940Z,778
2022-11-07T12:01:36.631Z,779
2022-11-07T12:03:20.462Z,777
2022-11-07T12:05:04.036Z,778
2022-11-07T12:06:47.734Z,778
2022-11-07T12:08:31.482Z,778
2022-11-07T12:10:15.147Z,778
2022-11-07T12:11:58.837Z,778
2022-11-07T12:13:42.541Z,778
2022-11-07T12:15:26.263Z,778
2022-11-07T12:17:09.950Z,778
2022-11-07T12:18:53.634Z,777
2022-11-07T12:20:37.340Z,777
2022-11-07T12:22:21.050Z,778
2022-11-07T12:24:04.744Z,776
2022-11-07T12:25:48.442Z,778
2022-11-07T12:27:32.164Z,778
2022-11-07T12:29:15.856Z,778
2022-11-07T12:30:59.539Z,777
2022-11-07T12:32:43.249Z,778
2022-11-07T12:34:26.948Z,778
2022-11-07T12:36:10.661Z,777
2022-11-07T12:37:54.353Z,777
2022-11-07T12:39:38.073Z,777
2022-11-07T12:41:21.777Z,777
2022-11-07T12:43:05.470Z,777
2022-11-07T12:44:49.171Z,778
2022-11-07T12:46:32.906Z,778
2022-11-07T12:48:16.582Z,777
2022-11-07T12:50:00.330Z,777
2022-11-07T12:51:43.988Z,777
2022-11-07T12:53:27.681Z,778
2022-11-07T12:55:11.388Z,778
2022-11-07T12:56:55.086Z,778
2022-11-07T12:58:38.771Z,778
2022-11-07T13:00:22.511Z,778
2022-11-07T13:02:06.234Z,779
2022-11-07T13:03:49.876Z,778
2022-11-07T13:05:33.580Z,778
2022-11-07T13:07:17.305Z,778
2022-11-07T13:09:00.989Z,777
2022-11-07T13:10:44.713Z,775
2022-11-07T13:12:28.383Z,778
2022-11-07T13:14:12.115Z,778
2022-11-07T13:15:55.801Z,778
2022-11-07T13:17:39.507Z,778
2022-11-07T13:19:23.205Z,777
2022-11-07T13:21:06.891Z,778
2022-11-07T13:22:50.651Z,778
2022-11-07T13:24:34.339Z,778
2022-11-07T13:26:18.015Z,778
2022-11-07T13:28:01.733Z,778
2022-11-07T13:29:45.428Z,778
2022-11-07T13:31:29.115Z,779
2022-11-07T13:33:12.820Z,777
2022-11-07T13:34:56.535Z,778
2022-11-07T13:36:40.235Z,777
2022-11-07T13:38:23.929Z,778
2022-11-07T13:40:07.630Z,777
2022-11-07T13:41:51.346Z,777
2022-11-07T13:43:35.036Z,778
2022-11-07T13:45:18.739Z,778
2022-11-07T13:47:02.451Z,778
2022-11-07T13:48:46.157Z,777
2022-11-07T13:50:29.853Z,778
2022-11-07T13:52:13.560Z,777
2022-11-07T13:53:57.252Z,778
2022-11-07T13:55:41.031Z,778
2022-11-07T13:57:24.690Z,778
2022-11-07T13:59:08.460Z,778
2022-11-07T14:00:52.105Z,778
2022-11-07T14:02:35.783Z,613
2022-11-07T14:04:19.469Z,561
2022-11-07T14:06:03.170Z,550
2022-11-07T14:07:46.897Z,561
2022-11-07T14:09:30.581Z,601
2022-11-07T14:11:14.263Z,739
2022-11-07T14:12:57.972Z,676
2022-11-07T14:14:41.669Z,681
2022-11-07T14:16:25.421Z,733
2022-11-07T14:18:09.095Z,777
2022-11-07T14:19:52.787Z,777
2022-11-07T14:21:36.478Z,778
2022-11-07T14:23:20.171Z,778
2022-11-07T14:25:03.878Z,777
2022-11-07T14:26:47.578Z,768
2022-11-07T14:28:31.276Z,686
2022-11-07T14:30:14.978Z,659
2022-11-07T14:31:58.675Z,644
2022-11-07T14:33:42.461Z,606
2022-11-07T14:35:26.080Z,580
2022-11-07T14:37:09.968Z,593
2022-11-07T14:38:53.479Z,570
2022-11-07T14:40:37.181Z,534
2022-11-07T14:42:20.904Z,518
2022-11-07T14:44:04.671Z,511
2022-11-07T14:45:48.283Z,494
2022-11-07T14:47:31.984Z,483
2022-11-07T14:49:15.700Z,472
2022-11-07T14:50:59.403Z,455
2022-11-07T14:52:43.090Z,453
2022-11-07T14:54:26.840Z,455
2022-11-07T14:56:10.554Z,451
2022-11-07T14:57:54.234Z,458
2022-11-07T14:59:37.920Z,450
2022-11-07T15:01:21.601Z,429
2022-11-07T15:03:05.303Z,411
2022-11-07T15:04:49.061Z,395
2022-11-07T15:06:32.699Z,379
2022-11-07T15:08:16.393Z,353
2022-11-07T15:10:00.126Z,346
2022-11-07T15:11:43.803Z,308
2022-11-07T15:13:27.513Z,283
2022-11-07T15:15:11.219Z,260
2022-11-07T15:16:54.908Z,243
2022-11-07T15:18:38.631Z,224
2022-11-07T15:20:22.345Z,208
2022-11-07T15:22:06.013Z,195
2022-11-07T15:23:49.752Z,193
2022-11-07T15:25:33.429Z,183
2022-11-07T15:27:17.129Z,180
2022-11-07T15:29:00.833Z,164
2022-11-07T15:30:44.546Z,155
2022-11-07T15:32:28.242Z,148
2022-11-07T15:34:11.934Z,137
2022-11-07T15:35:55.639Z,124
2022-11-07T15:37:39.411Z,107
2022-11-07T15:39:23.079Z,92
2022-11-07T15:41:06.939Z,77
2022-11-07T15:42:50.448Z,66
2022-11-07T15:44:34.293Z,57
2022-11-07T15:46:17.870Z,51
2022-11-07T15:48:01.739Z,45
2022-11-07T15:49:45.273Z,40
2022-11-07T15:51:29.087Z,36
2022-11-07T15:53:12.656Z,38
2022-11-07T15:54:56.443Z,42
2022-11-07T15:56:40.077Z,40
2022-11-07T15:58:23.770Z,35
2022-11-07T16:00:07.475Z,24
2022-11-07T16:01:51.177Z,15
2022-11-07T16:03:34.870Z,12
2022-11-07T16:05:18.586Z,9
2022-11-07T16:07:02.270Z,7
2022-11-07T16:08:45.992Z,5
2022-11-07T16:10:29.715Z,4
2022-11-07T16:12:13.380Z,3
2022-11-07T16:13:57.075Z,3
2022-11-07T16:15:40.886Z,2
2022-11-07T16:17:24.531Z,2
2022-11-07T16:19:08.199Z,2
2022-11-07T16:20:51.977Z,2
2022-11-07T16:22:35.586Z,2
2022-11-07T16:24:19.294Z,1
2022-11-07T16:26:03.006Z,1
2022-11-07T16:27:46.710Z,1
2022-11-07T16:29:30.463Z,1
2022-11-07T16:31:14.113Z,1
2022-11-07T16:32:57.899Z,1
2022-11-07T16:34:41.524Z,2
2022-11-07T16:36:25.280Z,1
2022-11-07T16:38:08.932Z,1
2022-11-07T16:39:52.601Z,0
2022-11-07T16:41:36.367Z,1
2022-11-07T16:43:20.032Z,1
2022-11-07T16:45:03.736Z,0
2022-11-07T16:46:47.426Z,1
2022-11-07T16:48:31.125Z,1
2022-11-07T16:50:14.824Z,1
2022-11-07T16:51:58.526Z,2
2022-11-07T16:53:42.237Z,2
2022-11-07T16:55:25.980Z,2
2022-11-07T16:57:09.618Z,2
2022-11-07T16:58:53.331Z,1
2022-11-07T17:00:37.093Z,1
2022-11-07T17:02:20.742Z,66
2022-11-07T17:04:04.500Z,67
2022-11-07T17:05:48.160Z,68
2022-11-07T17:07:31.832Z,68
2022-11-07T17:09:15.536Z,67
2022-11-07T17:10:59.323Z,68
2022-11-07T17:12:42.998Z,67
2022-11-07T17:14:26.648Z,2
2022-11-07T17:16:10.354Z,1
2022-11-07T17:17:54.072Z,1
2022-11-07T17:19:37.751Z,1
2022-11-07T17:21:21.430Z,1
2022-11-07T17:23:05.158Z,1
2022-11-07T17:24:48.854Z,1
2022-11-07T17:26:32.566Z,1
2022-11-07T17:28:16.326Z,1
2022-11-07T17:29:59.970Z,1
2022-11-07T17:31:43.655Z,1
2022-11-07T17:33:27.425Z,1
2022-11-07T17:35:11.083Z,1
2022-11-07T17:36:54.789Z,1
2022-11-07T17:38:38.484Z,1
2022-11-07T17:40:22.184Z,1
2022-11-07T17:42:05.881Z,1
2022-11-07T17:43:49.599Z,1
2022-11-07T17:45:33.300Z,1
2022-11-07T17:47:17.011Z,2
2022-11-07T17:49:00.698Z,1
2022-11-07T17:50:44.406Z,1
2022-11-07T17:52:28.105Z,1
2022-11-07T17:54:11.875Z,67
2022-11-07T17:55:55.510Z,15
2022-11-07T17:57:39.207Z,15
2022-11-07T17:59:22.927Z,15
2022-11-07T18:01:06.627Z,16
2022-11-07T18:02:50.331Z,15
2022-11-07T18:04:34.089Z,15
2022-11-07T18:06:17.729Z,15
2022-11-07T18:08:01.449Z,16
2022-11-07T18:09:45.210Z,15
2022-11-07T18:11:28.849Z,15
2022-11-07T18:13:12.584Z,15
2022-11-07T18:14:56.266Z,16
2022-11-07T18:16:39.967Z,15
2022-11-07T18:18:23.664Z,15
2022-11-07T18:20:07.351Z,15
2022-11-07T18:21:51.063Z,16
2022-11-07T18:23:34.761Z,14
2022-11-07T18:25:18.472Z,15
2022-11-07T18:27:02.168Z,15
2022-11-07T18:28:45.879Z,15
2022-11-07T18:30:29.583Z,14
2022-11-07T18:32:13.309Z,14
2022-11-07T18:33:57.002Z,12
2022-11-07T18:35:40.683Z,14
2022-11-07T18:37:24.383Z,14
2022-11-07T18:39:08.090Z,14
2022-11-07T18:40:51.800Z,14
2022-11-07T18:42:35.620Z,14
2022-11-07T18:44:19.213Z,15
2022-11-07T18:46:02.934Z,14
2022-11-07T18:47:46.586Z,72
2022-11-07T18:49:30.307Z,16
2022-11-07T18:51:13.986Z,19
2022-11-07T18:52:57.715Z,776
2022-11-07T18:54:41.391Z,364
2022-11-07T18:56:25.118Z,448
2022-11-07T18:58:08.789Z,381
2022-11-07T18:59:52.501Z,427
2022-11-07T19:01:36.201Z,776
2022-11-07T19:03:20.002Z,776
2022-11-07T19:05:03.745Z,445
2022-11-07T19:06:47.299Z,529
2022-11-07T19:08:31.012Z,531
2022-11-07T19:10:14.734Z,660
2022-11-07T19:11:58.482Z,389
2022-11-07T19:13:42.119Z,484
2022-11-07T19:15:25.840Z,475
2022-11-07T19:17:09.568Z,516
2022-11-07T19:18:53.206Z,485
2022-11-07T19:20:36.954Z,347
2022-11-07T19:22:20.714Z,776
2022-11-07T19:24:04.338Z,776
2022-11-07T19:25:48.046Z,776
2022-11-07T19:27:31.736Z,776
2022-11-07T19:29:15.442Z,776
2022-11-07T19:30:59.145Z,776
2022-11-07T19:32:42.847Z,776
2022-11-07T19:34:26.569Z,776
2022-11-07T19:36:10.265Z,776
2022-11-07T19:37:54.012Z,776
2022-11-07T19:39:37.662Z,776
2022-11-07T19:41:21.357Z,776
2022-11-07T19:43:05.110Z,776
2022-11-07T19:44:48.816Z,776
2022-11-07T19:46:32.466Z,776
2022-11-07T19:48:16.169Z,776
2022-11-07T19:49:59.876Z,776
2022-11-07T19:51:43.585Z,777
2022-11-07T19:53:27.270Z,776
2022-11-07T19:55:10.959Z,776
2022-11-07T19:56:54.686Z,776
2022-11-07T19:58:38.377Z,776
2022-11-07T20:00:22.079Z,776
2022-11-07T20:02:05.823Z,776
2022-11-07T20:03:49.487Z,776
2022-11-07T20:05:33.184Z,776
2022-11-07T20:07:16.898Z,776
2022-11-07T20:09:00.592Z,777
2022-11-07T20:10:44.283Z,776
2022-11-07T20:12:27.989Z,776
2022-11-07T20:14:11.696Z,776
2022-11-07T20:15:55.388Z,776
2022-11-07T20:17:39.121Z,776
2022-11-07T20:19:22.798Z,776
2022-11-07T20:21:06.528Z,776
2022-11-07T20:22:50.203Z,775
2022-11-07T20:24:33.907Z,776
2022-11-07T20:26:17.620Z,776
2022-11-07T20:28:01.315Z,777
2022-11-07T20:29:45.004Z,777
2022-11-07T20:31:28.721Z,776
2022-11-07T20:33:12.426Z,777
2022-11-07T20:34:56.121Z,776
2022-11-07T20:36:39.899Z,776
2022-11-07T20:38:23.536Z,775
2022-11-07T20:40:07.239Z,776
2022-11-07T20:41:50.940Z,774
2022-11-07T20:43:34.735Z,78
2022-11-07T20:45:18.595Z,2
2022-11-07T20:47:02.278Z,2
2022-11-07T20:48:45.917Z,3
2022-11-07T20:50:29.651Z,2
2022-11-07T20:52:13.353Z,3
2022-11-07T20:53:57.028Z,2
2022-11-07T20:55:40.542Z,1
2022-11-07T20:57:24.490Z,2
2022-11-07T20:59:07.976Z,1
2022-11-07T21:00:51.822Z,3
2022-11-07T21:02:35.374Z,2
2022-11-07T21:04:19.282Z,2
2022-11-07T21:06:02.791Z,3
2022-11-07T21:07:46.602Z,2
2022-11-07T21:09:30.391Z,3
2022-11-07T21:11:13.875Z,3
2022-11-07T21:12:57.624Z,3
2022-11-07T21:14:41.304Z,2
2022-11-07T21:16:25.009Z,3
2022-11-07T21:18:08.711Z,2
2022-11-07T21:19:52.404Z,2
2022-11-07T21:21:36.119Z,2
2022-11-07T21:23:19.813Z,1
2022-11-07T21:25:03.526Z,2
2022-11-07T21:26:47.228Z,2
2022-11-07T21:28:30.931Z,2
2022-11-07T21:30:14.632Z,2
2022-11-07T21:31:58.342Z,2
2022-11-07T21:33:42.060Z,3
2022-11-07T21:35:25.752Z,1
2022-11-07T21:37:09.439Z,2
2022-11-07T21:38:53.149Z,2
2022-11-07T21:40:36.842Z,3
2022-11-07T21:42:20.556Z,3
2022-11-07T21:44:04.252Z,2
2022-11-07T21:45:47.940Z,2
2022-11-07T21:47:31.658Z,3
2022-11-07T21:49:15.368Z,2
2022-11-07T21:50:59.066Z,2
2022-11-07T21:52:42.770Z,2
2022-11-07T21:54:26.459Z,2
2022-11-07T21:56:10.166Z,2
2022-11-07T21:57:53.860Z,3
2022-11-07T21:59:37.566Z,2
2022-11-07T22:01:21.271Z,2
2022-11-07T22:03:05.033Z,3
2022-11-07T22:04:48.665Z,2
2022-11-07T22:06:32.361Z,2
2022-11-07T22:08:16.076Z,2
2022-11-07T22:09:59.798Z,2
2022-11-07T22:11:43.473Z,2
2022-11-07T22:13:27.243Z,2
2022-11-07T22:15:10.879Z,2
2022-11-07T22:16:54.581Z,2
2022-11-07T22:18:38.284Z,2
2022-11-07T22:20:21.969Z,2
2022-11-07T22:22:05.675Z,2
2022-11-07T22:23:49.382Z,2
2022-11-07T22:25:33.093Z,3
2022-11-07T22:27:16.811Z,3
2022-11-07T22:29:00.496Z,2
2022-11-07T22:30:44.189Z,2
2022-11-07T22:32:27.915Z,2
2022-11-07T22:34:11.591Z,2
2022-11-07T22:35:55.283Z,2
2022-11-07T22:37:38.995Z,2
2022-11-07T22:39:22.717Z,2
2022-11-07T22:41:06.406Z,2
2022-11-07T22:42:50.114Z,2
2022-11-07T22:44:33.800Z,2
2022-11-07T22:46:17.510Z,2
2022-11-07T22:48:01.204Z,1
2022-11-07T22:49:44.904Z,2
2022-11-07T22:51:28.608Z,1
2022-11-07T22:53:12.339Z,1
2022-11-07T22:54:55.998Z,2
2022-11-07T22:56:39.718Z,1
2022-11-07T22:58:23.409Z,1
2022-11-07T23:00:07.149Z,0
2022-11-07T23:01:50.926Z,1
2022-11-07T23:03:34.533Z,1
2022-11-07T23:05:18.227Z,1
2022-11-07T23:07:01.943Z,1
2022-11-07T23:08:45.631Z,2
2022-11-07T23:10:29.326Z,1
2022-11-07T23:12:13.031Z,1
2022-11-07T23:13:56.751Z,1
2022-11-07T23:15:40.445Z,1
2022-11-07T23:17:24.188Z,1
2022-11-07T23:19:07.929Z,2
2022-11-07T23:20:51.544Z,1
2022-11-07T23:22:35.217Z,1
2022-11-07T23:24:18.946Z,1
2022-11-07T23:26:02.648Z,1
2022-11-07T23:27:46.349Z,1
2022-11-07T23:29:30.051Z,2
2022-11-07T23:31:13.757Z,2
2022-11-07T23:32:57.488Z,1
2022-11-07T23:34:41.166Z,1
2022-11-07T23:36:24.845Z,0
2022-11-07T23:38:08.547Z,1
2022-11-07T23:39:52.238Z,1
2022-11-07T23:41:35.958Z,1
2022-11-07T23:43:19.655Z,1
2022-11-07T23:45:03.362Z,0
2022-11-07T23:46:47.057Z,0
2022-11-07T23:48:30.769Z,0
2022-11-07T23:50:14.448Z,0
2022-11-07T23:51:58.169Z,0
2022-11-07T23:53:41.881Z,0
2022-11-07T23:55:25.624Z,0
2022-11-07T23:57:09.287Z,0
2022-11-07T23:58:52.978Z,0
